Time;durP1;ratioP1;P1;durP2;ratioP2;P2;SDS_P1;SDS_P2;PMS_P1;PMS_P2;Temp;Humidity;BMP_temperature;BMP_pressure;BME280_temperature;BME280_humidity;BME280_pressure;Samples;Min_cycle;Max_cycle;Signal;HPM_P1;HPM_P2
2022/10/25 00:01:54;;;;;;;;;;;;;;;14.10;93.07;100238.44;86113;1298;87651;-58
2022/10/25 00:04:01;;;;;;;;;;;;;;;14.10;93.21;100240.27;86042;1291;94974;-58
2022/10/25 00:06:11;;;;;;;;;;;;;;;14.08;93.40;100239.91;86052;1298;78961;-58
2022/10/25 00:08:18;;;;;;;;;;;;;;;14.08;93.35;100237.87;86107;1289;81178;-59
2022/10/25 00:10:25;;;;;;;;;;;;;;;14.09;93.33;100231.89;86074;1282;96642;-58
2022/10/25 00:12:32;;;;;;;;;;;;;;;14.08;93.26;100232.86;86098;1290;88390;-60
2022/10/25 00:14:40;;;;;;;;;;;;;;;14.07;93.18;100232.15;86090;1295;93658;-60
2022/10/25 00:16:47;;;;;;;;;;;;;;;14.06;93.08;100235.24;86107;1294;81851;-60
2022/10/25 00:18:55;;;;;;;;;;;;;;;14.05;93.07;100230.27;86105;1295;83164;-60
2022/10/25 00:21:09;;;;;;;;;;;;;;;14.04;93.12;100228.44;86120;1289;98341;-60
2022/10/25 00:23:17;;;;;;;;;;;;;;;14.03;93.08;100227.45;86171;1287;87457;-59
2022/10/25 00:25:24;;;;;;;;;;;;;;;14.01;93.11;100228.27;86139;1290;94322;-60
2022/10/25 00:27:31;;;;;;;;;;;;;;;13.99;93.03;100226.42;86134;1290;80484;-59
2022/10/25 00:29:39;;;;;;;;;;;;;;;13.97;92.98;100225.64;86144;1290;82148;-59
2022/10/25 00:31:46;;;;;;;;;;;;;;;13.95;92.99;100228.21;86145;1290;98706;-59
2022/10/25 00:33:53;;;;;;;;;;;;;;;13.94;93.05;100228.23;86144;1290;88623;-59
2022/10/25 00:36:10;;;;;;;;;;;;;;;13.92;93.06;100230.17;86117;1290;95623;-60
2022/10/25 00:38:17;;;;;;;;;;;;;;;13.89;93.06;100229.55;86063;1297;80336;-59
2022/10/25 00:40:25;;;;;;;;;;;;;;;13.89;93.17;100228.13;86094;1296;81520;-58
2022/10/25 00:42:32;;;;;;;;;;;;;;;13.88;93.00;100229.59;86091;1296;97401;-60
2022/10/25 00:44:52;;;;;;;;;;;;;;;13.87;93.07;100225.75;86066;1291;88305;-60
2022/10/25 00:46:59;;;;;;;;;;;;;;;13.86;93.05;100224.67;86077;1291;95896;-61
2022/10/25 00:49:10;;;;;;;;;;;;;;;13.86;93.26;100225.13;86069;1290;81682;-60
2022/10/25 00:51:17;;;;;;;;;;;;;;;13.89;93.34;100218.27;86124;1290;83039;-59
2022/10/25 00:53:31;;;;;;;;;;;;;;;13.89;93.25;100219.10;86087;1290;97702;-59
2022/10/25 00:55:40;;;;;;;;;;;;;;;13.89;93.31;100217.31;86064;1297;88773;-58
2022/10/25 00:57:52;;;;;;;;;;;;;;;13.91;93.21;100210.56;86031;1275;93632;-59
2022/10/25 01:00:00;;;;;;;;;;;;;;;13.90;93.29;100214.34;85981;1298;81458;-59
2022/10/25 01:02:08;;;;;;;;;;;;;;;13.89;93.18;100213.17;86065;1292;81292;-59
2022/10/25 01:04:17;;;;;;;;;;;;;;;13.87;93.16;100210.38;86004;1297;98227;-59
2022/10/25 01:06:30;;;;;;;;;;;;;;;13.86;93.13;100212.02;86058;1290;89213;-60
2022/10/25 01:08:37;;;;;;;;;;;;;;;13.86;93.22;100213.48;86064;1291;94797;-59
2022/10/25 01:10:46;;;;;;;;;;;;;;;13.85;93.12;100209.17;86044;1291;81635;-59
2022/10/25 01:12:54;;;;;;;;;;;;;;;13.84;93.00;100207.27;86155;1291;83177;-59
2022/10/25 01:15:02;;;;;;;;;;;;;;;13.79;93.09;100204.05;86084;1298;96831;-59
2022/10/25 01:17:13;;;;;;;;;;;;;;;13.78;93.06;100212.76;86149;1292;89184;-59
2022/10/25 01:19:39;;;;;;;;;;;;;;;13.77;93.10;100213.59;86091;1290;94321;-60
2022/10/25 01:21:50;;;;;;;;;;;;;;;13.76;93.16;100213.05;86023;1298;82422;-59
2022/10/25 01:24:15;;;;;;;;;;;;;;;13.76;93.13;100213.55;86032;1291;81063;-59
2022/10/25 01:26:47;;;;;;;;;;;;;;;13.74;93.20;100214.89;86071;1298;99396;-59
2022/10/25 01:29:17;;;;;;;;;;;;;;;13.74;93.18;100211.23;85990;1284;88735;-60
2022/10/25 01:31:33;;;;;;;;;;;;;;;13.72;93.14;100212.10;86026;1291;95018;-59
2022/10/25 01:33:44;;;;;;;;;;;;;;;13.72;93.36;100207.84;86004;1290;81106;-59
2022/10/25 01:35:57;;;;;;;;;;;;;;;13.73;93.44;100207.73;86044;1298;82263;-59
2022/10/25 01:38:15;;;;;;;;;;;;;;;13.75;93.40;100207.29;86030;1294;95578;-59
2022/10/25 01:40:28;;;;;;;;;;;;;;;13.75;93.44;100208.80;85996;1290;88763;-59
2022/10/25 01:42:39;;;;;;;;;;;;;;;13.74;93.30;100210.64;86038;1291;95391;-59
2022/10/25 01:44:55;;;;;;;;;;;;;;;13.73;93.27;100213.44;86011;1291;80278;-59
2022/10/25 01:47:06;;;;;;;;;;;;;;;13.75;93.34;100216.57;86063;1290;81976;-58
2022/10/25 01:49:17;;;;;;;;;;;;;;;13.82;93.58;100217.63;86046;1282;98561;-59
2022/10/25 01:51:26;;;;;;;;;;;;;;;13.86;93.70;100219.99;86042;1298;88244;-60
2022/10/25 01:53:33;;;;;;;;;;;;;;;13.88;94.10;100222.25;86060;1291;94980;-59
2022/10/25 01:55:44;;;;;;;;;;;;;;;13.92;94.08;100224.19;86055;1291;80737;-59
2022/10/25 01:58:05;;;;;;;;;;;;;;;13.93;94.24;100221.97;86154;1298;81208;-58
2022/10/25 02:00:17;;;;;;;;;;;;;;;13.92;94.27;100223.23;86105;1298;98604;-59
2022/10/25 02:02:31;;;;;;;;;;;;;;;13.90;94.47;100221.36;86082;1290;87505;-59
2022/10/25 02:04:47;;;;;;;;;;;;;;;13.91;94.43;100222.48;86061;1291;93275;-59
2022/10/25 02:07:01;;;;;;;;;;;;;;;13.93;94.45;100217.66;86111;1291;81566;-60
2022/10/25 02:09:14;;;;;;;;;;;;;;;13.92;94.47;100220.89;86082;1290;81933;-59
2022/10/25 02:11:24;;;;;;;;;;;;;;;13.92;94.50;100219.47;86049;1292;97767;-59
2022/10/25 02:13:40;;;;;;;;;;;;;;;13.97;94.51;100222.50;86057;1290;88933;-59
2022/10/25 02:15:58;;;;;;;;;;;;;;;13.98;94.59;100219.11;86012;1290;94368;-59
2022/10/25 02:18:11;;;;;;;;;;;;;;;13.95;94.80;100219.16;85935;1293;83007;-59
2022/10/25 02:20:22;;;;;;;;;;;;;;;13.96;94.88;100217.44;86035;1290;82958;-59
2022/10/25 02:22:32;;;;;;;;;;;;;;;13.94;94.69;100214.70;86023;1290;98502;-59
2022/10/25 02:24:40;;;;;;;;;;;;;;;13.89;94.76;100210.08;86020;1291;88369;-59
2022/10/25 02:26:49;;;;;;;;;;;;;;;13.87;94.99;100208.63;86004;1291;94641;-58
2022/10/25 02:28:57;;;;;;;;;;;;;;;13.87;95.13;100213.98;86051;1291;81434;-59
2022/10/25 02:31:04;;;;;;;;;;;;;;;13.87;95.12;100217.62;86050;1292;82175;-58
2022/10/25 02:33:12;;;;;;;;;;;;;;;13.89;95.18;100213.55;86063;1290;99061;-59
2022/10/25 02:35:19;;;;;;;;;;;;;;;13.92;95.23;100213.20;86014;1297;89781;-58
2022/10/25 02:37:26;;;;;;;;;;;;;;;13.90;95.18;100208.16;86027;1291;93946;-59
2022/10/25 02:39:34;;;;;;;;;;;;;;;13.93;95.45;100201.75;86105;1284;80574;-59
2022/10/25 02:41:42;;;;;;;;;;;;;;;13.94;95.49;100207.34;86088;1291;83684;-59
2022/10/25 02:43:49;;;;;;;;;;;;;;;13.94;95.64;100217.36;86028;1295;99148;-60
2022/10/25 02:45:56;;;;;;;;;;;;;;;13.95;95.39;100218.02;86137;1295;88395;-59
2022/10/25 02:48:05;;;;;;;;;;;;;;;13.94;95.39;100213.70;86066;1291;94509;-59
2022/10/25 02:50:13;;;;;;;;;;;;;;;13.98;95.38;100210.63;86057;1298;81038;-60
2022/10/25 02:52:20;;;;;;;;;;;;;;;13.97;95.23;100205.02;86093;1291;81545;-59
2022/10/25 02:54:27;;;;;;;;;;;;;;;13.97;95.27;100206.02;86059;1291;97505;-58
2022/10/25 02:56:34;;;;;;;;;;;;;;;13.98;95.25;100202.80;86060;1291;88473;-59
2022/10/25 02:58:43;;;;;;;;;;;;;;;13.96;95.13;100198.23;86010;1291;95692;-58
2022/10/25 03:00:51;;;;;;;;;;;;;;;13.95;95.11;100195.89;86049;1291;81730;-59
2022/10/25 03:02:59;;;;;;;;;;;;;;;13.93;95.29;100199.23;86030;1298;81642;-59
2022/10/25 03:05:08;;;;;;;;;;;;;;;13.91;95.43;100199.46;86013;1291;96844;-57
2022/10/25 03:07:15;;;;;;;;;;;;;;;13.91;95.26;100200.97;86055;1291;87741;-59
2022/10/25 03:09:25;;;;;;;;;;;;;;;13.87;95.44;100197.38;86014;1285;94149;-57
2022/10/25 03:11:33;;;;;;;;;;;;;;;13.84;95.49;100192.39;86019;1291;82113;-58
2022/10/25 03:13:40;;;;;;;;;;;;;;;13.86;95.41;100191.59;86027;1290;82345;-61
2022/10/25 03:15:48;;;;;;;;;;;;;;;13.84;95.33;100194.31;86039;1290;97302;-58
2022/10/25 03:17:55;;;;;;;;;;;;;;;13.80;95.49;100199.75;86002;1291;87668;-60
2022/10/25 03:20:02;;;;;;;;;;;;;;;13.81;95.35;100205.27;86025;1291;95075;-59
2022/10/25 03:22:09;;;;;;;;;;;;;;;13.79;95.21;100207.61;86063;1291;82140;-59
2022/10/25 03:24:19;;;;;;;;;;;;;;;13.78;95.29;100208.28;86037;1290;82495;-59
2022/10/25 03:26:26;;;;;;;;;;;;;;;13.79;95.18;100210.17;86055;1291;98826;-59
2022/10/25 03:28:33;;;;;;;;;;;;;;;13.77;95.14;100210.96;86063;1298;88142;-59
2022/10/25 03:30:43;;;;;;;;;;;;;;;13.76;95.12;100203.66;86081;1291;94852;-59
2022/10/25 03:32:53;;;;;;;;;;;;;;;13.73;95.04;100199.20;86091;1297;79637;-58
2022/10/25 03:35:00;;;;;;;;;;;;;;;13.71;95.05;100200.70;86129;1288;82007;-58
2022/10/25 03:37:08;;;;;;;;;;;;;;;13.70;95.07;100203.97;86105;1291;97147;-58
2022/10/25 03:39:17;;;;;;;;;;;;;;;13.72;95.12;100203.17;86079;1291;88771;-58
2022/10/25 03:41:27;;;;;;;;;;;;;;;13.75;95.12;100202.66;86057;1298;94418;-59
2022/10/25 03:43:34;;;;;;;;;;;;;;;13.72;95.14;100200.58;86033;1291;82374;-59
2022/10/25 03:45:41;;;;;;;;;;;;;;;13.70;95.17;100201.30;86093;1294;82370;-59
2022/10/25 03:47:48;;;;;;;;;;;;;;;13.69;95.10;100201.52;86040;1290;98166;-58
2022/10/25 03:49:55;;;;;;;;;;;;;;;13.68;95.32;100201.77;86005;1297;89143;-59
2022/10/25 03:52:04;;;;;;;;;;;;;;;13.69;95.32;100198.09;86030;1291;94729;-58
2022/10/25 03:54:11;;;;;;;;;;;;;;;13.70;95.17;100203.38;86030;1298;82080;-58
2022/10/25 03:56:18;;;;;;;;;;;;;;;13.69;95.10;100201.91;86020;1291;80450;-58
2022/10/25 03:58:26;;;;;;;;;;;;;;;13.69;95.19;100194.86;86019;1291;98932;-59
2022/10/25 04:00:33;;;;;;;;;;;;;;;13.71;95.51;100194.27;86033;1295;89103;-58
2022/10/25 04:02:40;;;;;;;;;;;;;;;13.71;95.66;100192.10;86018;1291;94256;-59
2022/10/25 04:04:47;;;;;;;;;;;;;;;13.72;95.56;100190.73;85995;1298;81967;-60
2022/10/25 04:06:54;;;;;;;;;;;;;;;13.74;95.47;100185.95;86061;1298;82672;-58
2022/10/25 04:09:01;;;;;;;;;;;;;;;13.72;95.20;100187.04;85952;1293;98151;-58
2022/10/25 04:11:08;;;;;;;;;;;;;;;13.75;95.42;100186.58;86036;1297;89447;-58
2022/10/25 04:13:15;;;;;;;;;;;;;;;13.76;95.47;100183.86;86047;1283;94043;-59
2022/10/25 04:15:22;;;;;;;;;;;;;;;13.78;95.40;100183.10;86029;1291;81656;-58
2022/10/25 04:17:30;;;;;;;;;;;;;;;13.77;95.44;100187.83;86043;1298;83199;-58
2022/10/25 04:19:37;;;;;;;;;;;;;;;13.77;95.41;100187.77;86025;1291;98753;-58
2022/10/25 04:21:44;;;;;;;;;;;;;;;13.71;95.72;100189.98;86008;1291;88005;-58
2022/10/25 04:23:52;;;;;;;;;;;;;;;13.70;95.62;100190.20;86049;1291;93882;-58
2022/10/25 04:25:59;;;;;;;;;;;;;;;13.67;95.43;100191.74;86076;1298;81924;-58
2022/10/25 04:28:09;;;;;;;;;;;;;;;13.64;95.42;100187.75;86052;1297;82178;-58
2022/10/25 04:30:20;;;;;;;;;;;;;;;13.62;95.38;100189.88;86069;1291;98106;-59
2022/10/25 04:32:29;;;;;;;;;;;;;;;13.58;95.40;100188.06;86036;1291;88786;-59
2022/10/25 04:34:37;;;;;;;;;;;;;;;13.58;95.49;100188.43;86005;1298;95565;-59
2022/10/25 04:36:44;;;;;;;;;;;;;;;13.56;95.40;100186.68;86039;1298;81698;-58
2022/10/25 04:38:51;;;;;;;;;;;;;;;13.56;95.54;100183.81;86015;1298;82738;-59
2022/10/25 04:41:00;;;;;;;;;;;;;;;13.54;95.72;100179.38;86010;1290;98742;-58
2022/10/25 04:43:07;;;;;;;;;;;;;;;13.56;95.62;100178.96;86030;1291;86540;-57
2022/10/25 04:45:14;;;;;;;;;;;;;;;13.57;95.60;100175.15;86025;1291;93784;-59
2022/10/25 04:47:21;;;;;;;;;;;;;;;13.57;95.57;100177.63;86023;1298;79371;-58
2022/10/25 04:49:28;;;;;;;;;;;;;;;13.63;95.67;100173.60;86060;1290;81959;-58
2022/10/25 04:51:36;;;;;;;;;;;;;;;13.67;95.81;100169.81;86036;1298;99152;-59
2022/10/25 04:53:45;;;;;;;;;;;;;;;13.67;95.82;100175.13;86022;1299;86631;-62
2022/10/25 04:55:59;;;;;;;;;;;;;;;13.68;95.73;100182.23;86052;1298;95499;-59
2022/10/25 04:58:06;;;;;;;;;;;;;;;13.63;95.56;100185.87;86015;1292;80168;-59
2022/10/25 05:00:17;;;;;;;;;;;;;;;13.55;95.37;100182.09;86055;1298;83145;-59
2022/10/25 05:02:24;;;;;;;;;;;;;;;13.49;95.34;100183.70;86080;1291;97301;-59
2022/10/25 05:04:33;;;;;;;;;;;;;;;13.44;95.21;100182.09;86067;1291;88001;-61
2022/10/25 05:06:42;;;;;;;;;;;;;;;13.40;95.21;100186.62;86076;1275;93811;-58
2022/10/25 05:08:54;;;;;;;;;;;;;;;13.38;95.28;100187.40;86058;1298;82360;-60
2022/10/25 05:11:02;;;;;;;;;;;;;;;13.37;95.15;100188.32;85733;1290;467221;-59
2022/10/25 05:13:11;;;;;;;;;;;;;;;13.33;94.97;100189.05;86089;1291;98323;-58
2022/10/25 05:15:20;;;;;;;;;;;;;;;13.31;95.13;100190.43;86101;1291;89095;-58
2022/10/25 05:17:28;;;;;;;;;;;;;;;13.28;95.12;100195.73;86026;1290;95056;-59
2022/10/25 05:19:35;;;;;;;;;;;;;;;13.27;95.40;100194.77;86049;1298;81901;-59
2022/10/25 05:21:42;;;;;;;;;;;;;;;13.30;95.54;100193.06;86073;1298;82681;-59
2022/10/25 05:23:49;;;;;;;;;;;;;;;13.33;95.69;100193.22;85950;1294;97255;-59
2022/10/25 05:26:04;;;;;;;;;;;;;;;13.37;95.76;100196.67;86028;1290;89428;-59
2022/10/25 05:28:12;;;;;;;;;;;;;;;13.39;95.51;100203.36;85992;1291;94931;-59
2022/10/25 05:30:22;;;;;;;;;;;;;;;13.38;95.53;100207.58;86016;1291;79924;-58
2022/10/25 05:32:29;;;;;;;;;;;;;;;13.38;95.80;100210.54;86070;1290;80981;-58
2022/10/25 05:34:37;;;;;;;;;;;;;;;13.40;95.84;100215.55;86020;1291;98748;-59
2022/10/25 05:36:43;;;;;;;;;;;;;;;13.41;95.87;100213.52;86011;1290;88985;-58
2022/10/25 05:38:51;;;;;;;;;;;;;;;13.42;95.77;100214.37;85999;1291;95507;-58
2022/10/25 05:40:59;;;;;;;;;;;;;;;13.42;95.72;100213.70;86012;1290;81884;-58
2022/10/25 05:43:06;;;;;;;;;;;;;;;13.41;95.76;100214.29;86049;1298;82953;-59
2022/10/25 05:45:14;;;;;;;;;;;;;;;13.38;95.74;100221.38;86039;1294;98351;-59
2022/10/25 05:47:21;;;;;;;;;;;;;;;13.37;95.71;100223.44;86052;1291;88264;-59
2022/10/25 05:49:28;;;;;;;;;;;;;;;13.35;95.62;100226.52;86022;1291;95871;-58
2022/10/25 05:51:36;;;;;;;;;;;;;;;13.35;95.68;100227.33;86037;1291;82760;-58
2022/10/25 05:53:48;;;;;;;;;;;;;;;13.36;95.65;100229.70;86023;1291;81736;-58
2022/10/25 05:56:03;;;;;;;;;;;;;;;13.37;95.78;100234.03;86041;1298;98639;-59
2022/10/25 05:58:11;;;;;;;;;;;;;;;13.42;95.72;100234.77;86079;1298;87640;-58
2022/10/25 06:00:19;;;;;;;;;;;;;;;13.41;95.65;100232.28;86048;1291;95727;-58
2022/10/25 06:02:27;;;;;;;;;;;;;;;13.36;95.65;100233.49;86071;1298;81687;-59
2022/10/25 06:04:36;;;;;;;;;;;;;;;13.35;95.60;100231.98;86096;1298;83064;-58
2022/10/25 06:06:44;;;;;;;;;;;;;;;13.35;95.46;100231.88;86046;1298;98711;-58
2022/10/25 06:08:55;;;;;;;;;;;;;;;13.34;95.42;100235.67;86061;1291;87989;-58
2022/10/25 06:11:07;;;;;;;;;;;;;;;13.34;95.64;100237.13;86034;1291;95433;-59
2022/10/25 06:13:15;;;;;;;;;;;;;;;13.37;95.67;100237.38;86044;1292;82242;-59
2022/10/25 06:15:23;;;;;;;;;;;;;;;13.45;95.64;100242.58;86003;1295;81729;-58
2022/10/25 06:17:30;;;;;;;;;;;;;;;13.49;95.55;100247.41;86049;1291;97101;-59
2022/10/25 06:19:36;;;;;;;;;;;;;;;13.56;95.77;100249.40;86011;1298;87601;-58
2022/10/25 06:21:45;;;;;;;;;;;;;;;13.58;95.86;100252.73;86030;1290;93745;-58
2022/10/25 06:23:53;;;;;;;;;;;;;;;13.65;95.87;100251.13;86033;1291;81973;-58
2022/10/25 06:26:06;;;;;;;;;;;;;;;13.73;96.03;100251.11;86046;1290;81315;-58
2022/10/25 06:28:13;;;;;;;;;;;;;;;13.84;96.16;100251.33;85963;1294;98725;-59
2022/10/25 06:30:20;;;;;;;;;;;;;;;14.01;96.03;100250.09;86036;1297;88794;-58
2022/10/25 06:32:29;;;;;;;;;;;;;;;14.09;95.88;100250.19;86035;1286;96080;-58
2022/10/25 06:34:36;;;;;;;;;;;;;;;14.13;95.97;100249.33;86032;1290;82134;-59
2022/10/25 06:36:43;;;;;;;;;;;;;;;14.18;95.93;100246.80;86034;1298;81652;-58
2022/10/25 06:38:51;;;;;;;;;;;;;;;14.25;95.86;100244.73;86033;1291;98380;-59
2022/10/25 06:41:02;;;;;;;;;;;;;;;14.30;95.86;100244.41;86057;1291;88369;-59
2022/10/25 06:43:09;;;;;;;;;;;;;;;14.35;95.93;100240.52;86099;1298;95042;-58
2022/10/25 06:45:16;;;;;;;;;;;;;;;14.33;95.74;100241.27;86014;1291;81908;-58
2022/10/25 06:47:23;;;;;;;;;;;;;;;14.33;95.71;100242.95;86072;1297;81548;-59
2022/10/25 06:49:30;;;;;;;;;;;;;;;14.33;95.62;100242.38;86081;1291;99225;-60
2022/10/25 06:51:37;;;;;;;;;;;;;;;14.35;95.73;100248.09;86007;1294;87656;-59
2022/10/25 06:53:45;;;;;;;;;;;;;;;14.45;95.74;100247.77;86040;1291;95571;-58
2022/10/25 06:55:52;;;;;;;;;;;;;;;14.54;95.92;100246.10;86110;1291;82585;-58
2022/10/25 06:57:59;;;;;;;;;;;;;;;14.65;95.93;100242.02;86022;1290;82001;-59
2022/10/25 07:00:08;;;;;;;;;;;;;;;14.78;95.98;100240.50;86044;1290;98237;-59
2022/10/25 07:02:15;;;;;;;;;;;;;;;14.93;95.93;100235.45;86078;1291;87367;-58
2022/10/25 07:04:23;;;;;;;;;;;;;;;15.04;95.88;100237.69;86010;1290;92306;-58
2022/10/25 07:06:34;;;;;;;;;;;;;;;15.18;95.62;100242.60;86039;1293;81657;-59
2022/10/25 07:08:43;;;;;;;;;;;;;;;15.30;95.51;100244.29;86031;1292;83052;-59
2022/10/25 07:10:56;;;;;;;;;;;;;;;15.43;95.78;100240.41;86067;1291;96482;-59
2022/10/25 07:13:03;;;;;;;;;;;;;;;15.62;95.78;100239.30;86034;1298;89420;-58
2022/10/25 07:15:11;;;;;;;;;;;;;;;15.96;95.23;100243.48;86030;1291;95213;-58
2022/10/25 07:17:18;;;;;;;;;;;;;;;16.53;94.58;100247.60;86069;1298;81219;-58
2022/10/25 07:19:26;;;;;;;;;;;;;;;16.82;94.27;100251.77;86021;1290;81152;-58
2022/10/25 07:21:33;;;;;;;;;;;;;;;17.08;94.15;100244.42;86026;1295;98758;-59
2022/10/25 07:23:41;;;;;;;;;;;;;;;17.37;94.39;100240.98;86046;1291;89239;-59
2022/10/25 07:25:49;;;;;;;;;;;;;;;17.75;94.14;100234.73;85987;1291;93836;-58
2022/10/25 07:27:56;;;;;;;;;;;;;;;18.72;93.68;100232.57;86031;1297;80771;-58
2022/10/25 07:30:04;;;;;;;;;;;;;;;19.73;92.55;100230.85;86089;1298;81188;-58
2022/10/25 07:32:12;;;;;;;;;;;;;;;20.65;90.76;100228.02;86019;1291;96325;-59
2022/10/25 07:34:20;;;;;;;;;;;;;;;21.63;88.90;100220.66;86008;1293;88280;-58
2022/10/25 07:36:27;;;;;;;;;;;;;;;22.49;86.76;100220.57;86051;1298;94203;-60
2022/10/25 07:38:34;;;;;;;;;;;;;;;23.21;84.56;100217.97;86056;1298;79250;-60
2022/10/25 07:40:42;;;;;;;;;;;;;;;23.75;82.75;100221.75;86066;1291;80862;-60
2022/10/25 07:42:50;;;;;;;;;;;;;;;23.93;81.29;100225.35;86074;1295;98276;-58
2022/10/25 07:44:57;;;;;;;;;;;;;;;23.80;79.97;100225.99;86027;1298;88963;-59
2022/10/25 07:47:04;;;;;;;;;;;;;;;23.09;79.12;100225.58;86040;1291;93135;-60
2022/10/25 07:49:12;;;;;;;;;;;;;;;22.21;78.42;100228.66;86028;1290;80636;-58
2022/10/25 07:51:20;;;;;;;;;;;;;;;21.32;78.36;100231.56;86013;1290;82411;-58
2022/10/25 07:53:27;;;;;;;;;;;;;;;20.87;78.58;100235.73;86029;1298;96773;-59
2022/10/25 07:55:36;;;;;;;;;;;;;;;20.81;79.24;100239.29;85991;1292;89204;-59
2022/10/25 07:57:46;;;;;;;;;;;;;;;20.86;79.58;100238.61;86037;1291;96145;-58
2022/10/25 07:59:58;;;;;;;;;;;;;;;21.13;79.57;100233.65;85969;1288;80520;-59
2022/10/25 08:02:05;;;;;;;;;;;;;;;21.27;79.00;100233.52;86067;1291;81515;-60
2022/10/25 08:04:13;;;;;;;;;;;;;;;21.12;78.67;100229.92;86088;1291;98851;-60
2022/10/25 08:06:23;;;;;;;;;;;;;;;20.64;78.21;100226.20;86022;1291;88904;-59
2022/10/25 08:08:31;;;;;;;;;;;;;;;20.15;78.08;100223.02;86013;1296;95605;-60
2022/10/25 08:10:38;;;;;;;;;;;;;;;19.64;78.36;100224.90;86051;1291;80762;-61
2022/10/25 08:12:45;;;;;;;;;;;;;;;19.34;78.62;100227.67;86044;1291;81401;-59
2022/10/25 08:14:53;;;;;;;;;;;;;;;19.08;78.93;100229.77;86006;1291;98356;-59
2022/10/25 08:17:00;;;;;;;;;;;;;;;19.07;79.37;100225.88;86037;1291;89247;-59
2022/10/25 08:19:10;;;;;;;;;;;;;;;19.12;79.70;100229.17;85998;1291;95306;-58
2022/10/25 08:21:17;;;;;;;;;;;;;;;19.14;79.90;100222.75;85991;1298;80360;-60
2022/10/25 08:23:25;;;;;;;;;;;;;;;19.12;80.07;100224.08;86054;1285;82923;-60
2022/10/25 08:25:33;;;;;;;;;;;;;;;18.92;79.85;100226.77;86029;1298;99277;-60
2022/10/25 08:27:42;;;;;;;;;;;;;;;18.70;79.65;100231.13;86045;1275;87260;-59
2022/10/25 08:29:50;;;;;;;;;;;;;;;18.32;79.87;100233.80;86040;1295;95559;-58
2022/10/25 08:31:56;;;;;;;;;;;;;;;18.10;80.04;100234.86;86013;1298;80857;-59
2022/10/25 08:34:11;;;;;;;;;;;;;;;17.92;80.56;100239.46;86038;1298;82039;-60
2022/10/25 08:36:18;;;;;;;;;;;;;;;17.88;80.76;100240.85;86069;1291;97614;-60
2022/10/25 08:38:28;;;;;;;;;;;;;;;17.88;80.93;100240.69;86058;1298;87466;-61
2022/10/25 08:40:46;;;;;;;;;;;;;;;17.96;81.32;100239.38;86036;1291;94073;-60
2022/10/25 08:43:04;;;;;;;;;;;;;;;18.10;81.66;100243.02;86067;1289;80608;-60
2022/10/25 08:45:17;;;;;;;;;;;;;;;18.06;81.39;100246.05;86046;1291;81910;-60
2022/10/25 08:47:32;;;;;;;;;;;;;;;17.89;81.29;100247.16;86048;1291;98508;-59
2022/10/25 08:49:46;;;;;;;;;;;;;;;17.70;81.62;100251.45;86020;1291;88606;-59
2022/10/25 08:51:57;;;;;;;;;;;;;;;17.58;81.68;100253.80;86040;1290;93326;-59
2022/10/25 08:54:14;;;;;;;;;;;;;;;17.50;81.77;100252.54;86042;1291;81054;-59
2022/10/25 08:56:22;;;;;;;;;;;;;;;17.39;82.03;100255.35;86035;1291;82501;-59
2022/10/25 08:58:33;;;;;;;;;;;;;;;17.31;82.20;100259.40;86001;1291;99067;-61
2022/10/25 09:00:43;;;;;;;;;;;;;;;17.19;81.66;100255.12;86043;1291;88857;-59
2022/10/25 09:02:54;;;;;;;;;;;;;;;17.13;82.05;100258.25;86036;1291;93414;-59
2022/10/25 09:05:01;;;;;;;;;;;;;;;17.16;82.39;100257.55;85994;1298;81190;-59
2022/10/25 09:07:19;;;;;;;;;;;;;;;17.17;82.75;100256.88;86031;1297;82904;-60
2022/10/25 09:09:32;;;;;;;;;;;;;;;17.26;83.10;100261.88;86037;1291;98841;-60
2022/10/25 09:11:49;;;;;;;;;;;;;;;17.27;83.25;100259.14;86091;1297;87380;-59
2022/10/25 09:14:02;;;;;;;;;;;;;;;17.35;83.44;100258.35;86032;1291;94725;-60
2022/10/25 09:16:15;;;;;;;;;;;;;;;17.49;83.20;100253.16;86057;1298;79721;-60
2022/10/25 09:18:29;;;;;;;;;;;;;;;17.54;82.86;100256.00;86043;1297;82606;-59
2022/10/25 09:20:40;;;;;;;;;;;;;;;17.59;83.05;100256.55;86029;1298;98311;-59
2022/10/25 09:22:49;;;;;;;;;;;;;;;17.56;82.86;100258.98;86032;1291;88571;-60
2022/10/25 09:25:01;;;;;;;;;;;;;;;17.47;82.53;100260.44;86014;1291;94349;-60
2022/10/25 09:27:14;;;;;;;;;;;;;;;17.39;82.26;100265.05;86023;1291;80835;-59
2022/10/25 09:29:29;;;;;;;;;;;;;;;17.31;82.29;100266.45;86017;1291;81560;-60
2022/10/25 09:31:40;;;;;;;;;;;;;;;17.28;82.49;100264.70;86022;1292;97955;-64
2022/10/25 09:33:50;;;;;;;;;;;;;;;17.59;82.89;100260.58;86024;1297;88566;-60
2022/10/25 09:35:58;;;;;;;;;;;;;;;18.00;82.97;100261.83;86059;1290;93233;-61
2022/10/25 09:38:15;;;;;;;;;;;;;;;18.73;83.58;100259.63;86025;1297;79404;-60
2022/10/25 09:40:24;;;;;;;;;;;;;;;19.17;82.12;100261.52;86041;1291;80718;-60
2022/10/25 09:42:37;;;;;;;;;;;;;;;19.29;81.87;100262.31;86076;1291;98710;-60
2022/10/25 09:44:48;;;;;;;;;;;;;;;19.31;81.45;100262.42;86066;1297;88362;-59
2022/10/25 09:47:03;;;;;;;;;;;;;;;19.27;81.21;100264.25;86039;1291;95643;-59
2022/10/25 09:49:23;;;;;;;;;;;;;;;19.20;80.74;100264.90;86046;1297;79767;-60
2022/10/25 09:51:38;;;;;;;;;;;;;;;19.14;80.67;100260.11;86006;1300;82876;-60
2022/10/25 09:53:46;;;;;;;;;;;;;;;18.98;80.24;100262.73;86024;1291;97619;-60
2022/10/25 09:55:56;;;;;;;;;;;;;;;18.79;80.37;100266.95;86080;1291;88822;-60
2022/10/25 09:58:04;;;;;;;;;;;;;;;18.64;80.59;100262.88;85992;1291;95896;-58
2022/10/25 10:00:18;;;;;;;;;;;;;;;18.55;80.67;100263.64;85942;1297;80492;-60
2022/10/25 10:02:27;;;;;;;;;;;;;;;18.48;80.44;100264.61;85999;1294;82763;-59
2022/10/25 10:04:36;;;;;;;;;;;;;;;18.42;80.62;100267.61;85998;1285;98920;-58
2022/10/25 10:06:44;;;;;;;;;;;;;;;18.37;80.64;100265.98;85980;1299;88937;-60
2022/10/25 10:08:53;;;;;;;;;;;;;;;18.32;80.77;100266.42;85975;1297;93979;-58
2022/10/25 10:11:03;;;;;;;;;;;;;;;18.25;80.69;100264.39;85956;1294;78060;-60
2022/10/25 10:13:17;;;;;;;;;;;;;;;18.13;80.37;100262.49;85968;1299;83269;-61
2022/10/25 10:15:30;;;;;;;;;;;;;;;17.94;80.55;100257.82;86024;1300;98902;-60
2022/10/25 10:17:37;;;;;;;;;;;;;;;17.77;80.52;100258.86;86005;1292;88951;-60
2022/10/25 10:20:05;;;;;;;;;;;;;;;17.66;80.61;100256.86;85965;1294;95885;-60
2022/10/25 10:22:16;;;;;;;;;;;;;;;17.58;80.81;100254.83;85959;1294;80289;-59
2022/10/25 10:24:27;;;;;;;;;;;;;;;17.43;80.87;100252.86;85990;1285;83029;-61
2022/10/25 10:26:45;;;;;;;;;;;;;;;17.36;80.92;100255.75;85994;1292;97420;-60
2022/10/25 10:28:56;;;;;;;;;;;;;;;17.31;81.08;100258.27;85952;1284;89146;-59
2022/10/25 10:31:08;;;;;;;;;;;;;;;17.23;81.36;100259.87;85962;1294;95085;-59
2022/10/25 10:33:17;;;;;;;;;;;;;;;17.18;81.42;100261.86;85947;1301;81827;-60
2022/10/25 10:35:31;;;;;;;;;;;;;;;17.15;81.51;100265.71;85959;1297;81638;-60
2022/10/25 10:37:40;;;;;;;;;;;;;;;17.12;81.70;100264.34;85957;1299;97293;-60
2022/10/25 10:39:55;;;;;;;;;;;;;;;17.11;82.02;100264.76;85942;1294;89252;-60
2022/10/25 10:42:14;;;;;;;;;;;;;;;17.21;82.19;100262.27;85966;1298;93040;-60
2022/10/25 10:44:21;;;;;;;;;;;;;;;17.30;82.20;100267.02;85930;1297;81684;-60
2022/10/25 10:46:28;;;;;;;;;;;;;;;17.40;82.21;100264.15;85973;1297;83167;-59
2022/10/25 10:48:39;;;;;;;;;;;;;;;17.53;82.55;100260.16;85987;1297;97859;-60
2022/10/25 10:50:52;;;;;;;;;;;;;;;17.73;82.61;100257.35;85968;1294;88317;-60
2022/10/25 10:53:01;;;;;;;;;;;;;;;17.90;82.57;100261.56;85994;1297;95095;-60
2022/10/25 10:55:17;;;;;;;;;;;;;;;18.03;82.64;100260.38;85970;1293;82071;-61
2022/10/25 10:57:30;;;;;;;;;;;;;;;18.12;82.68;100262.52;85987;1294;83017;-60
2022/10/25 10:59:41;;;;;;;;;;;;;;;18.25;82.63;100265.48;86021;1291;96487;-60
2022/10/25 11:01:50;;;;;;;;;;;;;;;18.29;82.43;100262.39;86043;1291;87298;-60
2022/10/25 11:04:00;;;;;;;;;;;;;;;18.28;82.04;100262.09;86004;1298;94953;-60
2022/10/25 11:06:16;;;;;;;;;;;;;;;18.31;81.80;100262.32;86009;1298;80786;-60